Latest Weather Observations for Lismore Airport

IDN60801

Issued at 4:32 pm EDT Friday 9 December 2016 (issued every 30 minutes, with the page automatically refreshed every 10 minutes)

About weather observations | Map of weather stations | Latest weather observations for NSW | Other Formats
Station Details ID: 058214 Name: LISMORE AIRPORT AWS Lat: -28.83 Lon: 153.26 Height: 9.21 m
Data from the previous 72 hours. | See also: Recent months at Lismore Airport
Date/Time
EDT
Temp
°C
App
Temp
°C
Dew
Point
°C
Rel
Hum
%
Delta-T
°C
Wind Press
QNH
hPa
Press
MSL
hPa
Rain since
9am
mm
Dir  Spd
km/h
Gust
km/h
Spd
kts
Gust
kts
09/04:30pm 25.5 23.2 18.4 65 4.5 SE 28 39 15 21 1009.1 1009.1 0.0
09/04:00pm 27.7 24.9 18.1 56 6.1 SSE 30 44 16 24 1008.4 1008.4 0.0
09/03:51pm 28.6 25.9 17.5 51 7.0 SSW 28 44 15 24 1008.3 1008.3 0.0
09/03:30pm 31.0 28.9 13.7 34 10.4 W 17 24 9 13 1008.2 1008.2 0.0
09/03:00pm 31.0 27.0 10.4 28 11.8 W 22 30 12 16 1008.3 1008.3 0.0
09/02:30pm 30.6 26.5 11.5 30 11.1 WNW 24 33 13 18 1008.4 1008.4 0.0
09/02:00pm 30.1 30.2 19.2 52 7.1 W 17 24 9 13 1008.6 1008.6 0.0
09/01:30pm 28.4 29.1 18.8 56 6.2 WNW 13 20 7 11 1008.7 1008.7 0.0
09/01:00pm 28.5 28.5 19.7 59 5.7 NW 19 26 10 14 1008.8 1008.8 0.0
09/12:30pm 28.1 28.3 19.3 58 5.7 NW 17 30 9 16 1009.1 1009.1 0.0
09/12:00pm 27.5 26.6 19.0 59 5.5 NNW 22 32 12 17 1009.1 1009.1 0.0
09/11:30am 27.2 26.8 18.8 60 5.4 NNW 19 22 10 12 1009.1 1009.1 0.0
09/11:00am 26.5 26.3 18.6 62 5.0 NNW 17 24 9 13 1009.1 1009.1 0.0
09/10:30am 25.6 24.7 18.3 64 4.6 NW 20 28 11 15 1008.6 1008.6 0.0
09/10:00am 25.8 24.3 17.7 61 5.1 NW 22 35 12 19 1008.2 1008.2 0.0
09/09:30am 25.9 24.6 18.1 62 4.9 NW 22 30 12 16 1008.0 1008.0 0.0
09/09:00am 25.9 24.7 17.5 59 5.3 NW 20 28 11 15 1007.9 1007.9 0.6
09/08:30am 26.0 25.8 17.6 60 5.3 NW 15 24 8 13 1008.0 1008.0 0.6
09/08:00am 25.5 25.0 17.9 63 4.8 NW 17 26 9 14 1007.6 1007.6 0.6
09/07:30am 25.6 25.6 18.0 63 4.8 NNW 15 26 8 14 1007.2 1007.2 0.6
09/07:00am 25.6 24.8 18.0 63 4.8 NW 19 30 10 16 1006.8 1006.8 0.6
09/06:30am 25.5 25.0 18.7 66 4.3 NNW 19 24 10 13 1006.4 1006.4 0.6
09/06:00am 25.4 24.9 19.1 68 4.0 NNW 20 26 11 14 1005.9 1005.9 0.6
09/05:30am 25.7 24.3 18.9 66 4.3 NW 24 33 13 18 1005.4 1005.4 0.6
09/05:00am 25.6 25.1 19.0 67 4.2 NNW 20 28 11 15 1005.4 1005.4 0.6
09/04:30am 26.2 25.5 18.6 63 4.8 NW 20 28 11 15 1005.2 1005.2 0.6
09/04:00am 25.9 25.6 19.1 66 4.4 NNW 19 24 10 13 1005.2 1005.2 0.6
09/03:30am 26.1 25.6 19.2 65 4.4 NW 20 28 11 15 1005.2 1005.2 0.6
09/03:00am 25.7 26.6 20.0 71 3.7 NW 15 22 8 12 1005.3 1005.3 0.6
09/02:30am 23.9 26.2 21.4 86 1.6 N 11 15 6 8 1005.4 1005.4 0.6
09/02:00am 23.9 26.7 21.6 87 1.5 NNE 9 13 5 7 1005.6 1005.6 0.6
09/01:30am 24.0 26.1 21.7 87 1.5 N 13 17 7 9 1005.8 1005.8 0.6
09/01:00am 24.0 26.6 21.9 88 1.4 NNE 11 13 6 7 1005.9 1005.9 0.6
09/12:30am 24.1 26.3 21.8 87 1.5 N 13 15 7 8 1006.2 1006.2 0.6
09/12:00am 24.3 26.3 21.6 85 1.8 N 13 15 7 8 1006.5 1006.5 0.6
 
Date/Time
EDT
Temp
°C
App
Temp
°C
Dew
Point
°C
Rel
Hum
%
Delta-T
°C
Wind Press
QNH
hPa
Press
MSL
hPa
Rain since
9am
mm
Dir  Spd
km/h
Gust
km/h
Spd
kts
Gust
kts
08/11:30pm 24.4 25.9 21.3 83 2.0 NNE 15 20 8 11 1006.9 1006.9 0.6
08/11:00pm 25.1 26.6 21.2 79 2.6 NNE 15 22 8 12 1007.3 1007.3 0.6
08/10:30pm 25.1 27.8 20.6 76 2.9 E 7 9 4 5 1007.5 1007.5 0.6
08/10:26pm 25.2 27.8 20.5 75 3.1 ESE 7 11 4 6 1007.4 1007.4 0.6
08/10:00pm 25.8 26.1 19.7 69 4.0 S 17 32 9 17 1007.9 1007.9 0.6
08/09:49pm 26.0 27.3 20.8 73 3.4 SSW 15 28 8 15 1008.3 1008.3 0.6
08/09:30pm 26.3 27.4 21.3 74 3.3 SSE 17 22 9 12 1007.7 1007.7 0.6
08/09:00pm 26.3 27.8 21.3 74 3.3 NW 15 39 8 21 1007.4 1007.4 0.6
08/08:30pm 25.7 28.2 21.8 79 2.6 N 11 15 6 8 1005.7 1005.7 0.6
08/08:00pm 27.1 27.3 21.4 71 3.8 N 22 30 12 16 1005.2 1005.2 0.6
08/07:30pm 27.1 29.7 22.7 77 3.0 NE 13 17 7 9 1005.6 1005.6 0.6
08/07:00pm 27.5 29.4 22.7 75 3.3 NE 17 22 9 12 1005.6 1005.6 0.6
08/06:30pm 29.0 30.2 20.7 61 5.5 N 15 19 8 10 1005.0 1005.0 0.6
08/06:00pm 30.0 30.9 20.8 57 6.1 N 17 22 9 12 1004.7 1004.7 0.6
08/05:30pm 30.0 30.8 21.7 61 5.6 N 20 26 11 14 1004.4 1004.4 0.6
08/05:00pm 30.0 29.6 21.7 61 5.6 N 26 35 14 19 1004.7 1004.7 0.6
08/04:30pm 30.2 29.6 20.4 55 6.5 NNW 24 32 13 17 1005.2 1005.2 0.6
08/04:00pm 29.3 28.8 20.7 59 5.7 NNW 24 32 13 17 1005.7 1005.7 0.6
08/03:30pm 29.5 30.5 22.2 65 4.9 N 20 30 11 16 1006.6 1006.6 0.6
08/03:00pm 28.6 30.5 22.8 71 4.0 N 17 24 9 13 1007.1 1007.1 0.6
08/02:30pm 28.3 31.9 23.0 73 3.6 N 9 15 5 8 1007.6 1007.6 0.6
08/02:00pm 26.9 31.1 22.5 77 3.0 SW 4 13 2 7 1008.5 1008.5 0.6
08/01:30pm 25.3 28.7 22.0 82 2.2 N 7 11 4 6 1009.3 1009.3 0.6
08/01:29pm 25.3 28.7 22.0 82 2.2 N 7 11 4 6 1009.3 1009.3 0.6
08/01:00pm 25.1 28.6 22.2 84 1.9 NW 7 13 4 7 1009.6 1009.6 0.4
08/12:30pm 23.9 26.9 21.2 85 1.8 E 7 11 4 6 1009.9 1009.9 0.4
08/12:00pm 23.1 26.1 21.2 89 1.2 NNE 7 13 4 7 1010.4 1010.4 0.4
08/11:30am 22.5 24.4 20.6 89 1.2 NE 11 15 6 8 1010.4 1010.4 0.4
08/11:00am 22.3 25.5 20.6 90 1.1 NNE 4 11 2 6 1011.5 1011.5 0.2
08/10:30am 21.9 25.6 20.0 89 1.2 CALM 0 0 0 0 1012.2 1012.2 0.2
08/10:00am 21.6 25.4 20.2 92 0.9 CALM 0 0 0 0 1012.6 1012.6 0.2
08/09:30am 21.3 25.1 20.1 93 0.8 CALM 0 0 0 0 1012.7 1012.7 0.2
08/09:00am 21.2 24.6 20.2 94 0.6 S 2 6 1 3 1013.1 1013.1 11.2
08/08:30am 20.9 23.4 19.9 94 0.6 SE 6 7 3 4 1012.9 1012.9 11.2
08/08:27am 21.0 23.6 20.0 94 0.6 SE 6 7 3 4 1012.9 1012.9 11.2
08/08:06am 20.8 24.5 20.0 95 0.5 CALM 0 0 0 0 1012.8 1012.8 11.2
08/08:00am 20.9 24.7 20.1 95 0.5 CALM 0 0 0 0 1012.9 1012.9 11.2
08/07:38am 20.8 24.5 20.0 95 0.5 CALM 0 0 0 0 1013.0 1013.0 11.2
08/07:30am 20.5 23.3 19.7 95 0.5 S 4 7 2 4 1013.0 1013.0 11.2
08/07:00am 20.4 23.9 19.6 95 0.5 CALM 0 0 0 0 1012.9 1012.9 11.2
08/06:53am 20.4 23.9 19.6 95 0.5 CALM 0 0 0 0 1012.9 1012.9 11.2
08/06:30am 20.3 23.8 19.5 95 0.5 CALM 0 0 0 0 1012.9 1012.9 11.2
08/06:21am 20.2 23.6 19.4 95 0.5 CALM 0 0 0 0 1012.8 1012.8 11.2
08/06:00am 20.0 23.3 19.2 95 0.5 CALM 0 0 0 0 1012.5 1012.5 11.2
08/05:30am 20.1 23.5 19.4 96 0.4 CALM 0 0 0 0 1012.7 1012.7 11.2
08/05:00am 20.2 23.6 19.4 95 0.5 CALM 0 0 0 0 1012.7 1012.7 11.2
08/04:36am 20.1 23.5 19.3 95 0.5 CALM 0 0 0 0 1012.6 1012.6 11.2
08/04:30am 20.1 23.5 19.3 95 0.5 CALM 0 0 0 0 1012.7 1012.7 11.2
08/04:22am 20.2 23.6 19.4 95 0.5 CALM 0 0 0 0 1012.8 1012.8 11.2
08/04:00am 20.2 23.5 19.2 94 0.6 CALM 0 0 0 0 1012.9 1012.9 11.2
08/03:56am 20.2 23.5 19.2 94 0.6 CALM 0 0 0 0 1013.0 1013.0 11.2
08/03:30am 20.1 23.4 19.1 94 0.6 CALM 0 0 0 0 1013.1 1013.1 11.2
08/03:00am 20.1 22.0 18.9 93 0.8 SSW 7 9 4 5 1013.3 1013.3 11.2
08/02:30am 20.1 23.3 18.9 93 0.8 CALM 0 0 0 0 1013.4 1013.4 11.2
08/02:00am 20.2 22.1 19.0 93 0.8 SSW 7 9 4 5 1013.9 1013.9 11.2
08/01:30am 20.2 22.1 19.0 93 0.8 WSW 7 9 4 5 1014.3 1014.3 11.2
08/01:00am 20.4 22.4 19.2 93 0.8 WSW 7 11 4 6 1014.8 1014.8 11.2
08/12:30am 20.4 22.1 19.4 94 0.6 SW 9 15 5 8 1014.9 1014.9 11.2
08/12:00am 20.8 24.4 19.8 94 0.6 CALM 0 0 0 0 1015.4 1015.4 11.2
 
Date/Time
EDT
Temp
°C
App
Temp
°C
Dew
Point
°C
Rel
Hum
%
Delta-T
°C
Wind Press
QNH
hPa
Press
MSL
hPa
Rain since
9am
mm
Dir  Spd
km/h
Gust
km/h
Spd
kts
Gust
kts
07/11:30pm 20.7 22.9 19.7 94 0.6 S 7 11 4 6 1015.3 1015.3 11.2
07/11:00pm 20.8 22.8 20.0 95 0.5 SSW 9 11 5 6 1015.7 1015.7 11.2
07/10:30pm 20.9 22.2 20.1 95 0.5 SW 13 15 7 8 1015.9 1015.9 11.0
07/10:00pm 20.9 22.6 20.1 95 0.5 SSW 11 13 6 7 1015.8 1015.8 10.4
07/09:30pm 20.9 22.2 20.1 95 0.5 SW 13 17 7 9 1015.8 1015.8 10.4
07/09:29pm 20.9 22.2 20.1 95 0.5 SW 13 17 7 9 1015.8 1015.8 10.4
07/09:00pm 21.0 22.3 20.2 95 0.5 SSW 13 19 7 10 1015.6 1015.6 10.2
07/08:39pm 21.2 22.4 20.0 93 0.8 SSW 13 19 7 10 1015.6 1015.6 9.8
07/08:30pm 21.4 23.2 20.4 94 0.6 SSW 11 17 6 9 1015.5 1015.5 9.8
07/08:00pm 21.3 23.5 20.3 94 0.6 S 9 15 5 8 1014.9 1014.9 9.8
07/07:30pm 21.3 23.1 20.3 94 0.6 S 11 20 6 11 1014.5 1014.5 9.8
07/07:00pm 21.4 22.2 20.6 95 0.5 SSE 17 24 9 13 1014.4 1014.4 9.8
07/06:30pm 21.4 22.6 20.6 95 0.5 SSW 15 22 8 12 1014.1 1014.1 9.8
07/06:21pm 21.4 22.9 20.6 95 0.5 SSE 13 19 7 10 1013.8 1013.8 9.6
07/06:00pm 21.3 20.6 20.3 94 0.6 SSE 24 33 13 18 1012.6 1012.6 8.2
07/05:53pm 21.5 21.2 20.3 93 0.8 SW 22 32 12 17 1013.8 1013.8 3.4
07/05:30pm 21.9 22.2 20.4 91 1.0 SSE 19 22 10 12 1013.1 1013.1 0.2
07/05:28pm 21.9 22.6 20.4 91 1.0 SSE 17 22 9 12 1013.0 1013.0 0.2
07/05:00pm 23.1 23.5 20.6 86 1.6 S 19 26 10 14 1013.2 1013.2 0.0
07/04:52pm 23.4 24.1 20.5 84 1.9 SSE 17 24 9 13 1013.0 1013.0 0.0
07/04:30pm 23.4 25.2 21.1 87 1.5 SE 13 20 7 11 1012.7 1012.7 0.0
07/04:00pm 23.2 24.6 21.1 88 1.4 SE 15 22 8 12 1012.7 1012.7 0.0
07/03:30pm 23.5 24.0 21.2 87 1.5 SSE 20 30 11 16 1012.2 1012.2 0.0
07/03:00pm 23.9 23.0 20.6 82 2.2 SSE 26 33 14 18 1012.3 1012.3 0.0
07/02:30pm 24.4 23.4 20.5 79 2.5 SSE 26 33 14 18 1012.4 1012.4 0.0
07/02:10pm 24.7 24.0 21.0 80 2.4 SE 26 39 14 21 1012.4 1012.4 0.0
07/02:00pm 24.9 22.7 20.8 78 2.7 SSE 33 43 18 23 1012.1 1012.1 0.0
07/01:50pm 26.1 24.3 21.1 74 3.3 SSE 32 43 17 23 1012.0 1012.0 0.0
07/01:30pm 28.8 30.6 22.5 68 4.3 SSE 17 24 9 13 1011.7 1011.7 0.0
07/01:00pm 28.9 31.4 22.4 68 4.4 SSE 13 15 7 8 1011.5 1011.5 0.0
07/12:30pm 28.7 32.8 22.2 68 4.4 WSW 4 13 2 7 1011.6 1011.6 0.0
07/12:00pm 28.1 32.2 22.3 70 3.9 ESE 4 9 2 5 1011.7 1011.7 0.0
07/11:30am 27.2 30.4 23.0 78 2.9 NNW 11 15 6 8 1011.9 1011.9 0.0
07/11:00am 25.7 27.8 22.4 82 2.2 N 15 20 8 11 1011.8 1011.8 0.0
07/10:30am 25.4 26.8 22.9 86 1.7 NNE 20 28 11 15 1011.5 1011.5 0.0
07/10:00am 24.8 27.7 21.7 83 2.1 NE 9 15 5 8 1012.4 1012.4 0.0
07/09:30am 24.7 28.7 22.0 85 1.8 W 4 9 2 5 1013.4 1013.4 0.0
07/09:00am 23.9 27.7 21.6 87 1.5 N 4 7 2 4 1013.6 1013.6 6.6
07/08:30am 23.5 27.4 21.8 90 1.1 NNE 4 9 2 5 1013.3 1013.3 6.4
07/08:00am 23.1 25.2 21.7 92 0.9 NE 13 17 7 9 1013.1 1013.1 6.4
07/07:30am 22.7 26.8 21.5 93 0.8 NNE 2 11 1 6 1013.7 1013.7 6.4
07/07:00am 22.4 26.1 21.4 94 0.7 NE 4 9 2 5 1013.6 1013.6 6.4
07/06:30am 22.2 26.0 21.0 93 0.8 NNW 2 7 1 4 1012.9 1012.9 6.4
07/06:00am 22.3 25.0 21.3 94 0.7 N 9 11 5 6 1012.1 1012.1 6.4
07/05:30am 22.3 24.6 21.3 94 0.7 NE 11 15 6 8 1011.7 1011.7 6.4
07/05:13am 22.2 26.5 21.2 94 0.7 CALM 0 0 0 0 1012.1 1012.1 6.0
07/05:00am 22.3 26.8 21.5 95 0.5 CALM 0 7 0 4 1012.7 1012.7 5.6
07/04:56am 22.3 25.5 21.3 94 0.7 - 6 13 3 7 1012.7 1012.7 5.2
07/04:43am 22.4 23.0 21.4 94 0.7 NNW 20 26 11 14 1012.9 1012.9 4.8
07/04:30am 22.5 24.8 21.3 93 0.8 N 11 15 6 8 1012.9 1012.9 3.6
07/04:23am 22.7 24.9 21.2 91 1.0 NNW 11 15 6 8 1012.6 1012.6 3.0
07/04:06am 23.4 25.4 20.7 85 1.8 WSW 11 15 6 8 1012.1 1012.1 1.6
07/04:00am 23.6 25.7 20.9 85 1.8 W 11 15 6 8 1012.3 1012.3 1.4
07/03:30am 23.2 25.4 21.1 88 1.4 WNW 11 15 6 8 1012.4 1012.4 1.0
07/03:16am 22.9 24.7 21.2 90 1.1 NW 13 15 7 8 1011.7 1011.7 1.0
07/03:00am 22.9 27.1 21.0 89 1.2 CALM 0 0 0 0 1010.9 1010.9 1.0
07/02:30am 23.3 26.1 20.8 86 1.6 S 7 11 4 6 1011.2 1011.2 1.0
07/02:00am 23.4 25.1 20.9 86 1.6 SW 13 19 7 10 1011.4 1011.4 1.0
07/01:30am 23.4 26.1 20.2 82 2.1 S 6 9 3 5 1010.9 1010.9 1.0
07/01:00am 23.7 25.7 20.0 80 2.4 WSW 9 13 5 7 1011.3 1011.3 1.0
07/12:30am 23.7 26.3 20.0 80 2.4 WSW 6 9 3 5 1010.7 1010.7 1.0
07/12:00am 23.8 23.4 20.1 80 2.4 SW 22 28 12 15 1010.7 1010.7 1.0
 
Date/Time
EDT
Temp
°C
App
Temp
°C
Dew
Point
°C
Rel
Hum
%
Delta-T
°C
Wind Press
QNH
hPa
Press
MSL
hPa
Rain since
9am
mm
Dir  Spd
km/h
Gust
km/h
Spd
kts
Gust
kts
06/11:30pm 24.9 26.8 20.6 77 2.8 W 11 22 6 12 1010.5 1010.5 1.0
06/11:13pm 24.5 22.1 21.0 81 2.3 NNW 35 61 19 33 1010.1 1010.1 1.0
06/11:04pm 24.8 23.5 21.3 81 2.3 NNE 30 61 16 33 1009.1 1009.1 1.0
06/11:03pm 25.2 24.3 21.5 80 2.5 NE 28 54 15 29 1009.2 1009.2 1.0
06/11:00pm 25.9 25.1 21.6 77 2.9 NE 28 43 15 23 1008.8 1008.8 1.0
06/10:54pm 24.9 24.4 22.2 85 1.8 NE 28 43 15 23 1008.8 1008.8 1.0
06/10:30pm 24.6 26.9 22.8 90 1.2 NNE 15 22 8 12 1010.4 1010.4 0.4
06/10:00pm 24.3 27.6 21.4 84 1.9 NE 6 11 3 6 1011.1 1011.1 0.0
06/09:30pm 25.0 27.9 21.1 79 2.6 NNW 7 11 4 6 1010.5 1010.5 0.0
06/09:12pm 25.8 28.3 21.0 75 3.2 NNE 9 15 5 8 1010.2 1010.2 0.0
06/09:01pm 26.0 27.7 21.0 74 3.3 NNE 13 20 7 11 1009.9 1009.9 0.0
06/09:00pm 26.0 27.4 21.0 74 3.3 NNE 15 20 8 11 1009.9 1009.9 0.0
06/08:50pm 26.1 27.0 20.9 73 3.4 NE 17 22 9 12 1009.8 1009.8 0.0
06/08:39pm 26.3 27.7 21.1 73 3.4 NE 15 22 8 12 1009.6 1009.6 0.0
06/08:30pm 26.5 27.5 21.0 72 3.6 NNE 17 20 9 11 1009.6 1009.6 0.0
06/08:20pm 26.6 27.2 21.1 72 3.6 NNE 19 24 10 13 1009.6 1009.6 0.0
06/08:00pm 27.4 28.0 21.0 68 4.2 NNE 19 22 10 12 1009.1 1009.1 0.0
06/07:30pm 29.5 32.9 22.7 67 4.6 NNE 9 13 5 7 1008.6 1008.6 0.0
06/07:00pm 31.4 34.6 22.4 59 6.1 NNE 9 13 5 7 1008.3 1008.3 0.0
06/06:30pm 32.2 34.4 22.6 57 6.6 NNE 15 19 8 10 1008.0 1008.0 0.0
06/06:00pm 32.4 35.1 22.8 57 6.6 N 13 20 7 11 1007.7 1007.7 0.0
06/05:30pm 33.0 34.9 22.7 54 7.1 N 17 20 9 11 1007.4 1007.4 0.0
06/05:00pm 33.4 35.1 23.1 54 7.1 N 19 22 10 12 1007.1 1007.1 0.0

Other Formats:

Comma delimited format used in spreadsheet applications
http://www.bom.gov.au/fwo/IDN60801/IDN60801.94572.axf

JavaScript Object Notation format (JSON) in row-major order
http://www.bom.gov.au/fwo/IDN60801/IDN60801.94572.json